createdAt,value
2018-05-10T00:00:50.057Z,87.29
2018-05-10T00:01:58.895Z,87.86
2018-05-10T00:03:07.736Z,87.09
2018-05-10T00:04:16.576Z,87.19
2018-05-10T00:05:25.696Z,87.57
2018-05-10T00:06:34.534Z,87.86
2018-05-10T00:07:43.454Z,87.09
2018-05-10T00:08:52.565Z,87.62
2018-05-10T00:10:01.408Z,87.53
2018-05-10T00:11:10.521Z,87.15
2018-05-10T00:12:19.359Z,87.15
2018-05-10T00:13:28.474Z,87.24
2018-05-10T00:14:37.314Z,87.34
2018-05-10T00:15:46.153Z,87.72
2018-05-10T00:16:54.998Z,87.92
2018-05-10T00:18:04.214Z,87.82
2018-05-10T00:19:13.056Z,87.62
2018-05-10T00:20:21.896Z,88.1
2018-05-10T00:21:30.735Z,87.92
2018-05-10T00:22:39.580Z,87.43
2018-05-10T00:23:48.616Z,87.62
2018-05-10T00:24:57.735Z,87.34
2018-05-10T00:26:06.575Z,88.01
2018-05-10T00:27:15.411Z,87.82
2018-05-10T00:28:24.249Z,88.3
2018-05-10T00:29:33.240Z,87.72
2018-05-10T00:30:42.365Z,88.2
2018-05-10T00:31:51.203Z,88.78
2018-05-10T00:33:00.040Z,89.36
2018-05-10T00:34:08.878Z,88.97
2018-05-10T00:35:18.065Z,88.97
2018-05-10T00:36:26.902Z,88.87
2018-05-10T00:37:35.738Z,88.87
2018-05-10T00:38:44.852Z,88.78
2018-05-10T00:39:53.689Z,89.02
2018-05-10T00:41:02.525Z,89.16
2018-05-10T00:42:11.650Z,89.5
2018-05-10T00:43:20.498Z,89.26
2018-05-10T00:44:29.338Z,89.5
2018-05-10T00:45:38.174Z,89.22
2018-05-10T00:46:47.113Z,89.22
2018-05-10T00:47:55.944Z,89.12
2018-05-10T00:49:04.783Z,89.12
2018-05-10T00:50:13.895Z,88.73
2018-05-10T00:51:22.736Z,89.02
2018-05-10T00:52:31.623Z,89.89
2018-05-10T00:53:40.462Z,89.64
2018-05-10T00:54:49.300Z,90.08
2018-05-10T00:55:58.134Z,89.6
2018-05-10T00:57:06.970Z,90.46
2018-05-10T00:58:16.007Z,90.27
2018-05-10T00:59:24.845Z,90.56
2018-05-10T01:00:33.962Z,90.08
2018-05-10T01:01:42.800Z,90.27
2018-05-10T01:02:51.641Z,90.08
2018-05-10T01:04:01.099Z,89.89
2018-05-10T01:05:09.936Z,90.56
2018-05-10T01:06:18.774Z,90.84
2018-05-10T01:07:27.887Z,90.94
2018-05-10T01:08:36.998Z,91.04
2018-05-10T01:09:45.983Z,91.52
2018-05-10T01:10:54.825Z,91.96
2018-05-10T01:12:03.757Z,92.1
2018-05-10T01:13:12.601Z,92.14
2018-05-10T01:14:21.433Z,91.57
2018-05-10T01:15:30.420Z,91.76
2018-05-10T01:16:39.259Z,91.96
2018-05-10T01:17:48.098Z,92.43
2018-05-10T01:18:56.936Z,92.43
2018-05-10T01:20:06.048Z,92.72
2018-05-10T01:21:15.179Z,93.2
2018-05-10T01:22:24.017Z,93.1
2018-05-10T01:23:32.852Z,92.82
2018-05-10T01:24:41.689Z,92.82
2018-05-10T01:25:50.800Z,92.82
2018-05-10T01:26:59.790Z,93.1
2018-05-10T01:28:08.626Z,93.49
2018-05-10T01:29:17.460Z,93.49
2018-05-10T01:30:26.296Z,93.68
2018-05-10T01:31:35.404Z,94.07
2018-05-10T01:32:44.250Z,93.59
2018-05-10T01:33:53.083Z,92.91
2018-05-10T01:35:01.919Z,92.33
2018-05-10T01:36:11.034Z,94.07
2018-05-10T01:37:20.147Z,93.97
2018-05-10T01:38:29.336Z,94.16
2018-05-10T01:39:38.173Z,94.16
2018-05-10T01:40:47.016Z,93.73
2018-05-10T01:41:55.848Z,94.88
2018-05-10T01:43:04.969Z,94.59
2018-05-10T01:44:13.853Z,95.07
2018-05-10T01:45:22.690Z,95.17
2018-05-10T01:46:31.524Z,95.07
2018-05-10T01:47:40.361Z,95.55
2018-05-10T01:48:49.197Z,95.65
2018-05-10T01:49:58.309Z,94.79
2018-05-10T01:51:07.425Z,95.26
2018-05-10T01:52:16.267Z,95.75
2018-05-10T01:53:25.378Z,96.03
2018-05-10T01:54:34.216Z,96.03
2018-05-10T01:55:43.481Z,95.84
2018-05-10T01:56:52.868Z,95.75
2018-05-10T01:58:01.704Z,94.98
2018-05-10T01:59:10.544Z,95.65
2018-05-10T02:00:19.383Z,95.94
2018-05-10T02:01:28.419Z,96.03
2018-05-10T02:02:37.532Z,95.75
2018-05-10T02:03:46.369Z,95.75
2018-05-10T02:04:55.211Z,95.26
2018-05-10T02:06:04.052Z,96.03
2018-05-10T02:07:12.990Z,96.03
2018-05-10T02:08:22.097Z,96.22
2018-05-10T02:09:30.942Z,96.89
2018-05-10T02:10:39.774Z,97.09
2018-05-10T02:11:48.890Z,97.23
2018-05-10T02:12:57.877Z,96.85
2018-05-10T02:14:06.988Z,96.85
2018-05-10T02:15:16.380Z,96.85
2018-05-10T02:16:25.216Z,97.61
2018-05-10T02:17:34.054Z,97.04
2018-05-10T02:18:43.042Z,96.85
2018-05-10T02:19:51.880Z,96.85
2018-05-10T02:21:00.721Z,97.23
2018-05-10T02:22:09.830Z,96.56
2018-05-10T02:23:18.672Z,96.56
2018-05-10T02:24:27.857Z,96.94
2018-05-10T02:25:36.693Z,97.33
2018-05-10T02:26:45.529Z,96.75
2018-05-10T02:27:54.640Z,97.52
2018-05-10T02:29:03.751Z,97.42
2018-05-10T02:30:12.740Z,97.14
2018-05-10T02:31:21.852Z,97.61
2018-05-10T02:32:31.249Z,97.14
2018-05-10T02:33:40.086Z,96.66
2018-05-10T02:34:48.935Z,96.94
2018-05-10T02:35:57.910Z,96.94
2018-05-10T02:37:07.308Z,97.42
2018-05-10T02:38:16.426Z,97.42
2018-05-10T02:39:25.830Z,96.85
2018-05-10T02:40:35.492Z,96.56
2018-05-10T02:41:44.434Z,97.42
2018-05-10T02:42:53.268Z,97.81
2018-05-10T02:44:02.384Z,99.01
2018-05-10T02:45:11.770Z,98.96
2018-05-10T02:46:20.613Z,99.05
2018-05-10T02:47:29.826Z,98.24
2018-05-10T02:48:38.938Z,98.43
2018-05-10T02:49:48.608Z,98.96
2018-05-10T02:50:57.724Z,97.95
2018-05-10T02:52:06.562Z,98.81
2018-05-10T02:53:15.413Z,98.05
2018-05-10T02:54:24.257Z,98.62
2018-05-10T02:55:33.458Z,99.1
2018-05-10T02:56:42.297Z,98.81
2018-05-10T02:57:51.134Z,98.05
2018-05-10T02:59:00.775Z,98.62
2018-05-10T03:00:09.614Z,99.01
2018-05-10T03:01:19.010Z,98.62
2018-05-10T03:02:28.394Z,98.33
2018-05-10T03:03:37.783Z,99.01
2018-05-10T03:04:47.050Z,97.85
2018-05-10T03:05:56.161Z,98.24
2018-05-10T03:07:05.275Z,99.1
2018-05-10T03:08:14.662Z,99.29
2018-05-10T03:09:23.781Z,98.91
2018-05-10T03:10:32.873Z,99.58
2018-05-10T03:11:42.280Z,99.39
2018-05-10T03:12:51.390Z,99.01
2018-05-10T03:14:00.236Z,99.58
2018-05-10T03:15:09.344Z,99.77
2018-05-10T03:16:18.607Z,99.29
2018-05-10T03:17:27.717Z,99.1
2018-05-10T03:18:37.101Z,98.72
2018-05-10T03:19:45.937Z,98.62
2018-05-10T03:20:54.777Z,99.01
2018-05-10T03:22:03.892Z,99.68
2018-05-10T03:23:12.997Z,99.39
2018-05-10T03:24:21.833Z,98.96
2018-05-10T03:25:30.949Z,99.24
2018-05-10T03:26:40.060Z,99.34
2018-05-10T03:27:49.276Z,99.99
2018-05-10T03:28:58.108Z,99.24
2018-05-10T03:30:07.233Z,99.53
2018-05-10T03:31:16.930Z,99.24
2018-05-10T03:32:26.044Z,99.43
2018-05-10T03:33:34.880Z,99.15
2018-05-10T03:34:43.720Z,98.67
2018-05-10T03:35:52.556Z,98.86
2018-05-10T03:37:01.395Z,98.38
2018-05-10T03:38:10.237Z,99.24
2018-05-10T03:39:19.176Z,99.34
2018-05-10T03:40:28.119Z,99.43
2018-05-10T03:41:37.223Z,99.43
2018-05-10T03:42:46.061Z,99.53
2018-05-10T03:43:54.897Z,99.43
2018-05-10T03:45:03.885Z,99.99
2018-05-10T03:46:12.999Z,99.99
2018-05-10T03:47:21.836Z,99.99
2018-05-10T03:48:30.672Z,99.43
2018-05-10T03:49:39.508Z,99.43
2018-05-10T03:50:48.445Z,99.72
2018-05-10T03:51:57.830Z,99.99
2018-05-10T03:53:06.666Z,99.99
2018-05-10T03:54:15.502Z,99.82
2018-05-10T03:55:24.614Z,99.99
2018-05-10T03:56:33.501Z,99.43
2018-05-10T03:57:42.612Z,99.24
2018-05-10T03:58:51.724Z,99.82
2018-05-10T04:00:00.561Z,99.63
2018-05-10T04:01:09.740Z,99.24
2018-05-10T04:02:19.001Z,99.91
2018-05-10T04:03:27.844Z,99.82
2018-05-10T04:04:36.683Z,99.53
2018-05-10T04:05:46.063Z,99.24
2018-05-10T04:06:55.178Z,99.63
2018-05-10T04:08:04.287Z,99.91
2018-05-10T04:09:13.124Z,99.91
2018-05-10T04:10:22.237Z,99.91
2018-05-10T04:11:31.074Z,99.72
2018-05-10T04:12:40.181Z,99.63
2018-05-10T04:13:49.020Z,99.43
2018-05-10T04:14:57.854Z,99.82
2018-05-10T04:16:06.966Z,99.82
2018-05-10T04:17:15.803Z,99.91
2018-05-10T04:18:24.912Z,99.43
2018-05-10T04:19:34.127Z,99.53
2018-05-10T04:20:43.236Z,99.05
2018-05-10T04:21:52.072Z,99.05
2018-05-10T04:23:00.907Z,99.72
2018-05-10T04:24:09.744Z,99.24
2018-05-10T04:25:18.781Z,99.34
2018-05-10T04:26:27.617Z,99.53
2018-05-10T04:27:36.454Z,99.24
2018-05-10T04:28:45.291Z,99.05
2018-05-10T04:29:54.128Z,98.86
2018-05-10T04:31:03.119Z,98.67
2018-05-10T04:32:12.232Z,98.76
2018-05-10T04:33:21.069Z,99.15
2018-05-10T04:34:29.907Z,99.34
2018-05-10T04:35:38.823Z,99.34
2018-05-10T04:36:48.268Z,99.53
2018-05-10T04:37:57.459Z,99.05
2018-05-10T04:39:06.569Z,99.24
2018-05-10T04:40:15.404Z,99.43
2018-05-10T04:41:24.244Z,99.91
2018-05-10T04:42:33.181Z,99.53
2018-05-10T04:43:42.016Z,99.63
2018-05-10T04:44:51.155Z,99.05
2018-05-10T04:45:59.994Z,99.53
2018-05-10T04:47:08.837Z,99.05
2018-05-10T04:48:18.127Z,99.34
2018-05-10T04:49:26.963Z,99.34
2018-05-10T04:50:35.802Z,99.24
2018-05-10T04:51:44.640Z,99.34
2018-05-10T04:52:53.478Z,99.15
2018-05-10T04:54:02.312Z,98.86
2018-05-10T04:55:11.149Z,99.15
2018-05-10T04:56:20.260Z,99.15
2018-05-10T04:57:29.102Z,99.24
2018-05-10T04:58:37.933Z,98.96
2018-05-10T04:59:46.770Z,99.24
2018-05-10T05:00:55.605Z,99.34
2018-05-10T05:02:04.442Z,98.76
2018-05-10T05:03:13.276Z,99.05
2018-05-10T05:04:22.384Z,99.34
2018-05-10T05:05:31.320Z,99.15
2018-05-10T05:06:40.434Z,99.34
2018-05-10T05:07:49.273Z,99.63
2018-05-10T05:08:58.119Z,99.34
2018-05-10T05:10:07.353Z,99.34
2018-05-10T05:11:16.291Z,99.43
2018-05-10T05:12:25.128Z,99.01
2018-05-10T05:13:33.962Z,98.14
2018-05-10T05:14:42.802Z,99.19
2018-05-10T05:15:51.640Z,99.29
2018-05-10T05:17:00.627Z,98.91
2018-05-10T05:18:09.759Z,99.48
2018-05-10T05:19:18.873Z,98.33
2018-05-10T05:20:27.713Z,98.24
2018-05-10T05:21:36.687Z,98.62
2018-05-10T05:22:45.534Z,98.91
2018-05-10T05:23:54.368Z,99.19
2018-05-10T05:25:03.205Z,99.19
2018-05-10T05:26:12.320Z,99.19
2018-05-10T05:27:21.433Z,98.33
2018-05-10T05:28:30.271Z,98.24
2018-05-10T05:29:39.107Z,99.19
2018-05-10T05:30:48.491Z,98.05
2018-05-10T05:31:57.617Z,98.43
2018-05-10T05:33:06.733Z,98.72
2018-05-10T05:34:15.769Z,98.62
2018-05-10T05:35:24.606Z,98.43
2018-05-10T05:36:33.473Z,98.14
2018-05-10T05:37:43.708Z,98.33
2018-05-10T05:38:52.572Z,98.33
2018-05-10T05:40:01.680Z,98.14
2018-05-10T05:41:10.959Z,98.43
2018-05-10T05:42:20.961Z,97.56
2018-05-10T05:43:29.906Z,98.62
2018-05-10T05:44:38.643Z,97.66
2018-05-10T05:45:47.530Z,98.62
2018-05-10T05:46:56.367Z,97.66
2018-05-10T05:48:05.204Z,98.52
2018-05-10T05:49:14.039Z,97.9
2018-05-10T05:50:22.878Z,98.57
2018-05-10T05:51:31.940Z,97.42
2018-05-10T05:52:40.777Z,97.33
2018-05-10T05:53:49.615Z,97.9
2018-05-10T05:54:58.554Z,97.71
2018-05-10T05:56:07.676Z,97.52
2018-05-10T05:57:16.616Z,97.81
2018-05-10T05:58:25.723Z,97.61
2018-05-10T05:59:34.561Z,97.71
2018-05-10T06:00:43.674Z,97.71
2018-05-10T06:01:52.512Z,97.61
2018-05-10T06:03:01.956Z,97.9
2018-05-10T06:04:10.793Z,97.71
2018-05-10T06:05:19.913Z,97.52
2018-05-10T06:06:29.090Z,97.81
2018-05-10T06:07:37.991Z,97.71
2018-05-10T06:08:46.885Z,97.23
2018-05-10T06:09:56.088Z,97.66
2018-05-10T06:11:04.924Z,98.05
2018-05-10T06:12:14.046Z,97.47
2018-05-10T06:13:22.890Z,97.95
2018-05-10T06:14:31.922Z,97.42
2018-05-10T06:15:40.765Z,97.56
2018-05-10T06:16:49.598Z,97.56
2018-05-10T06:17:58.712Z,97.56
2018-05-10T06:19:07.832Z,97.47
2018-05-10T06:20:16.814Z,98.05
2018-05-10T06:21:25.936Z,97.28
2018-05-10T06:22:34.778Z,97.56
2018-05-10T06:23:43.892Z,97.66
2018-05-10T06:24:52.953Z,97.86
2018-05-10T06:26:02.437Z,97.76
2018-05-10T06:27:11.275Z,97.47
2018-05-10T06:28:20.112Z,98.05
2018-05-10T06:29:28.949Z,97.47
2018-05-10T06:30:37.787Z,97.38
2018-05-10T06:31:46.623Z,97.52
2018-05-10T06:32:55.461Z,97.04
2018-05-10T06:34:04.588Z,96.75
2018-05-10T06:35:13.697Z,96.94
2018-05-10T06:36:22.546Z,96.85
2018-05-10T06:37:31.429Z,96.75
2018-05-10T06:38:40.265Z,96.85
2018-05-10T06:39:49.377Z,96.56
2018-05-10T06:40:58.226Z,97.24
2018-05-10T06:42:07.454Z,96.66
2018-05-10T06:43:16.294Z,96.47
2018-05-10T06:44:25.430Z,96.08
2018-05-10T06:45:34.541Z,96.37
2018-05-10T06:46:43.717Z,95.6
2018-05-10T06:47:53.246Z,96.27
2018-05-10T06:49:02.357Z,96.27
2018-05-10T06:50:11.532Z,96.22
2018-05-10T06:51:20.366Z,96.03
2018-05-10T06:52:29.205Z,96.32
2018-05-10T06:53:38.043Z,95.94
2018-05-10T06:54:47.005Z,96.03
2018-05-10T06:55:55.844Z,95.26
2018-05-10T06:57:04.962Z,95.26
2018-05-10T06:58:13.816Z,95.07
2018-05-10T06:59:22.960Z,95.17
2018-05-10T07:00:32.126Z,95.5
2018-05-10T07:01:41.203Z,95.03
2018-05-10T07:02:50.094Z,95.31
2018-05-10T07:03:59.499Z,94.83
2018-05-10T07:05:08.439Z,95.12
2018-05-10T07:06:17.388Z,94.45
2018-05-10T07:07:26.245Z,94.16
2018-05-10T07:08:35.445Z,94.49
2018-05-10T07:09:44.505Z,94.49
2018-05-10T07:10:53.589Z,94.49
2018-05-10T07:12:02.589Z,94.49
2018-05-10T07:13:12.679Z,94.88
2018-05-10T07:14:21.601Z,94.88
2018-05-10T07:15:30.445Z,94.68
2018-05-10T07:16:39.284Z,94.4
2018-05-10T07:17:48.816Z,95.26
2018-05-10T07:18:57.694Z,94.3
2018-05-10T07:20:06.496Z,94.3
2018-05-10T07:21:15.336Z,94.49
2018-05-10T07:22:24.187Z,94.45
2018-05-10T07:23:33.303Z,94.54
2018-05-10T07:24:42.140Z,94.49
2018-05-10T07:25:51.005Z,94.15
2018-05-10T07:26:59.905Z,93.87
2018-05-10T07:28:08.746Z,93.68
2018-05-10T07:29:18.750Z,94.54
2018-05-10T07:30:28.143Z,94.45
2018-05-10T07:31:37.261Z,94.25
2018-05-10T07:32:46.101Z,94.64
2018-05-10T07:33:54.939Z,93.87
2018-05-10T07:35:03.880Z,93.29
2018-05-10T07:36:12.737Z,93.87
2018-05-10T07:37:21.566Z,93.77
2018-05-10T07:38:30.409Z,94.68
2018-05-10T07:39:39.796Z,93.77
2018-05-10T07:40:49.060Z,94.15
2018-05-10T07:41:57.940Z,93.15
2018-05-10T07:43:07.124Z,93.43
2018-05-10T07:44:16.245Z,93.24
2018-05-10T07:45:25.086Z,93.43
2018-05-10T07:46:34.276Z,93.33
2018-05-10T07:47:43.405Z,93.33
2018-05-10T07:48:52.514Z,93.24
2018-05-10T07:50:01.354Z,93.05
2018-05-10T07:51:10.471Z,93.53
2018-05-10T07:52:19.310Z,93.24
2018-05-10T07:53:28.151Z,93.24
2018-05-10T07:54:37.273Z,93.15
2018-05-10T07:55:46.424Z,93.24
2018-05-10T07:56:55.325Z,93.24
2018-05-10T07:58:04.328Z,93.53
2018-05-10T07:59:13.179Z,94.2
2018-05-10T08:00:22.036Z,93.38
2018-05-10T08:01:31.185Z,93.57
2018-05-10T08:02:40.039Z,94.06
2018-05-10T08:03:49.161Z,93.09
2018-05-10T08:04:58.013Z,93
2018-05-10T08:06:06.857Z,93.38
2018-05-10T08:07:15.698Z,93.38
2018-05-10T08:08:24.545Z,91.84
2018-05-10T08:09:34.003Z,91.99
2018-05-10T08:10:43.124Z,93.04
2018-05-10T08:11:51.964Z,93.04
2018-05-10T08:13:00.805Z,92.08
2018-05-10T08:14:09.649Z,91.02
2018-05-10T08:15:18.509Z,91.12
2018-05-10T08:16:27.362Z,90.92
2018-05-10T08:17:36.212Z,90.2
2018-05-10T08:18:45.342Z,90.64
2018-05-10T08:19:54.198Z,90.58
2018-05-10T08:21:03.200Z,90.54
2018-05-10T08:22:12.057Z,90.73
2018-05-10T08:23:20.907Z,90.16
2018-05-10T08:24:29.758Z,89.67
2018-05-10T08:25:38.632Z,90.83
2018-05-10T08:26:48.112Z,90.54
2018-05-10T08:27:57.235Z,90.25
2018-05-10T08:29:06.086Z,90.58
2018-05-10T08:30:14.996Z,90.88
2018-05-10T08:31:24.170Z,89.43
2018-05-10T08:34:11.914Z,89.62
2018-05-10T08:35:21.036Z,90.2
2018-05-10T08:36:30.022Z,90.3
2018-05-10T08:37:38.897Z,89.91
2018-05-10T08:38:47.750Z,90.88
2018-05-10T08:39:56.598Z,90.88
2018-05-10T08:41:05.462Z,90.68
2018-05-10T08:42:14.594Z,91.16
2018-05-10T08:43:23.535Z,90.88
2018-05-10T08:44:32.377Z,90.3
2018-05-10T08:45:41.346Z,89.53
2018-05-10T08:46:50.464Z,90.2
2018-05-10T08:47:59.315Z,90.1
2018-05-10T08:49:08.972Z,89.72
2018-05-10T08:50:18.107Z,89.43
2018-05-10T08:51:26.949Z,89.14
2018-05-10T08:52:36.610Z,89.91
2018-05-10T08:53:45.449Z,89.91
2018-05-10T08:54:54.663Z,89.62
2018-05-10T08:56:03.778Z,89.33
2018-05-10T08:57:12.616Z,89.91
2018-05-10T08:58:21.457Z,90.39
2018-05-10T08:59:30.301Z,89.91
2018-05-10T09:00:39.140Z,89.91
2018-05-10T09:01:47.988Z,90.34
2018-05-10T09:02:57.110Z,89.76
2018-05-10T09:04:06.049Z,89.67
2018-05-10T09:05:14.899Z,89.67
2018-05-10T09:06:23.748Z,89.91
2018-05-10T09:07:32.867Z,90.2
2018-05-10T09:08:41.706Z,89.57
2018-05-10T09:09:50.897Z,89.86
2018-05-10T09:11:00.014Z,89.76
2018-05-10T09:12:09.128Z,89.67
2018-05-10T09:13:18.246Z,89.67
2018-05-10T09:14:27.091Z,89.28
2018-05-10T09:15:35.923Z,89.76
2018-05-10T09:16:44.765Z,90.39
2018-05-10T09:17:54.236Z,90.58
2018-05-10T09:19:03.352Z,91.16
2018-05-10T09:20:12.495Z,90.88
2018-05-10T09:21:21.311Z,90.78
2018-05-10T09:22:30.154Z,90.58
2018-05-10T09:23:39.364Z,90.78
2018-05-10T09:24:48.210Z,90.88
2018-05-10T09:25:57.377Z,90.68
2018-05-10T09:27:06.578Z,91.06
2018-05-10T09:28:15.420Z,91.83
2018-05-10T09:29:24.309Z,91.74
2018-05-10T09:30:33.149Z,92.32
2018-05-10T09:31:41.989Z,91.83
2018-05-10T09:32:51.112Z,92.13
2018-05-10T09:33:59.947Z,91.74
2018-05-10T09:35:09.217Z,92.08
2018-05-10T09:36:18.059Z,92.18
2018-05-10T09:37:26.898Z,92.76
2018-05-10T09:38:35.739Z,93.14
2018-05-10T09:39:44.576Z,92.37
2018-05-10T09:40:53.464Z,92.85
2018-05-10T09:42:02.580Z,91.6
2018-05-10T09:43:11.422Z,92.76
2018-05-10T09:44:20.538Z,92.22
2018-05-10T09:45:29.653Z,91.55
2018-05-10T09:46:38.543Z,92.27
2018-05-10T09:47:47.383Z,92.27
2018-05-10T09:48:56.224Z,91.5
2018-05-10T09:50:05.335Z,91.84
2018-05-10T09:51:14.455Z,92.03
2018-05-10T09:52:23.396Z,92.9
2018-05-10T09:53:32.233Z,92.13
2018-05-10T09:54:41.073Z,92.27
2018-05-10T09:55:50.461Z,92.03
2018-05-10T09:56:59.301Z,91.89
2018-05-10T09:58:08.495Z,92.94
2018-05-10T09:59:17.335Z,93.29
2018-05-10T10:00:26.513Z,92.85
2018-05-10T10:01:35.628Z,92.76
2018-05-10T10:02:44.744Z,91.79
2018-05-10T10:03:53.736Z,92.27
2018-05-10T10:05:02.575Z,91.41
2018-05-10T10:06:11.425Z,92.18
2018-05-10T10:07:20.631Z,92.13
2018-05-10T10:08:29.475Z,92.08
2018-05-10T10:09:38.466Z,92.27
2018-05-10T10:10:47.306Z,91.12
2018-05-10T10:11:56.144Z,91.02
2018-05-10T10:13:05.259Z,91.89
2018-05-10T10:14:14.101Z,91.6
2018-05-10T10:15:22.996Z,91.31
2018-05-10T10:16:31.834Z,91.41
2018-05-10T10:17:40.750Z,91.5
2018-05-10T10:18:49.518Z,91.02
2018-05-10T10:19:58.357Z,91.02
2018-05-10T10:21:07.746Z,90.25
2018-05-10T10:22:16.869Z,90.73
2018-05-10T10:23:25.712Z,90.92
2018-05-10T10:24:34.830Z,91.12
2018-05-10T10:25:43.943Z,91.12
2018-05-10T10:26:53.034Z,90.73
2018-05-10T10:28:01.871Z,90.64
2018-05-10T10:29:10.711Z,90.92
2018-05-10T10:30:19.552Z,91.02
2018-05-10T10:31:28.393Z,90.64
2018-05-10T10:32:37.236Z,90.83
2018-05-10T10:33:46.367Z,90.78
2018-05-10T10:34:55.204Z,90.54
2018-05-10T10:36:04.045Z,89.86
2018-05-10T10:37:13.172Z,90.25
2018-05-10T10:38:22.113Z,90.73
2018-05-10T10:39:30.953Z,90.44
2018-05-10T10:40:39.793Z,90.73
2018-05-10T10:41:48.910Z,90.73
2018-05-10T10:42:57.749Z,90.64
2018-05-10T10:44:07.072Z,91.02
2018-05-10T10:45:16.458Z,90.88
2018-05-10T10:46:25.611Z,90.78
2018-05-10T10:47:34.451Z,90.58
2018-05-10T10:48:43.291Z,90.88
2018-05-10T10:49:52.187Z,91.06
2018-05-10T10:51:01.317Z,90.48
2018-05-10T10:52:10.154Z,90.39
2018-05-10T10:53:19.002Z,90.88
2018-05-10T10:54:28.128Z,90
2018-05-10T10:55:37.117Z,90.97
2018-05-10T10:56:45.954Z,89.81
2018-05-10T10:57:54.793Z,89.91
2018-05-10T10:59:03.637Z,89.53
2018-05-10T11:00:12.753Z,89.53
2018-05-10T11:01:21.599Z,89.18
2018-05-10T11:02:30.434Z,88.31
2018-05-10T11:03:39.276Z,89.04
2018-05-10T11:04:48.117Z,89.72
2018-05-10T11:05:56.963Z,89.72
2018-05-10T11:07:06.131Z,89.62
2018-05-10T11:08:14.969Z,89.62
2018-05-10T11:09:23.811Z,89.81
2018-05-10T11:10:32.656Z,89.81
2018-05-10T11:11:41.492Z,89.23
2018-05-10T11:12:50.334Z,89.72
2018-05-10T11:13:59.176Z,89.23
2018-05-10T11:15:08.094Z,89.53
2018-05-10T11:16:17.300Z,88.85
2018-05-10T11:17:26.143Z,89.04
2018-05-10T11:18:35.312Z,88.56
2018-05-10T11:19:44.151Z,88.95
2018-05-10T11:20:53.284Z,88.95
2018-05-10T11:22:02.771Z,88.85
2018-05-10T11:23:11.889Z,89.04
2018-05-10T11:24:20.730Z,88.37
2018-05-10T11:25:29.570Z,89.23
2018-05-10T11:26:38.962Z,89.23
2018-05-10T11:27:47.805Z,88.99
2018-05-10T11:28:56.649Z,88.51
2018-05-10T11:30:05.539Z,87.83
2018-05-10T11:31:14.383Z,87.54
2018-05-10T11:32:23.223Z,87.16
2018-05-10T11:33:32.067Z,87.83
2018-05-10T11:34:41.180Z,87.74
2018-05-10T11:35:50.450Z,88.08
2018-05-10T11:36:59.571Z,88.46
2018-05-10T11:38:08.413Z,87.64
2018-05-10T11:39:17.249Z,87.64
2018-05-10T11:40:26.091Z,87.83
2018-05-10T11:41:35.032Z,88.02
2018-05-10T11:42:44.027Z,87.64
2018-05-10T11:43:52.869Z,87.45
2018-05-10T11:45:01.711Z,87.16
2018-05-10T11:46:10.554Z,87.06
2018-05-10T11:47:19.549Z,86.29
2018-05-10T11:48:28.391Z,87.26
2018-05-10T11:49:37.236Z,87.16
2018-05-10T11:50:46.073Z,87.2
2018-05-10T11:51:55.190Z,85.37
2018-05-10T11:53:04.231Z,86.48
2018-05-10T11:54:13.075Z,87.26
2018-05-10T11:55:21.916Z,87.26
2018-05-10T11:56:30.758Z,87.06
2018-05-10T11:57:39.875Z,86.29
2018-05-10T11:58:49.370Z,87.26
2018-05-10T11:59:58.764Z,86.96
2018-05-10T12:01:07.606Z,87.06
2018-05-10T12:02:16.449Z,87.06
2018-05-10T12:03:25.288Z,87.06
2018-05-10T12:04:34.478Z,87.12
2018-05-10T12:05:43.600Z,87.5
2018-05-10T12:06:52.440Z,88.46
2018-05-10T12:08:01.285Z,87.74
2018-05-10T12:09:10.676Z,88.12
2018-05-10T12:10:20.150Z,88.27
2018-05-10T12:11:28.994Z,88.37
2018-05-10T12:12:37.836Z,88.31
2018-05-10T12:13:46.679Z,88.65
2018-05-10T12:14:55.522Z,87.3
2018-05-10T12:16:04.461Z,87.79
2018-05-10T12:17:13.574Z,88.17
2018-05-10T12:18:22.413Z,89.04
2018-05-10T12:19:31.530Z,88.9
2018-05-10T12:20:40.370Z,88.81
2018-05-10T12:21:49.361Z,88.13
2018-05-10T12:22:58.202Z,88.23
2018-05-10T12:24:07.046Z,88.23
2018-05-10T12:25:16.167Z,88.71
2018-05-10T12:26:25.009Z,89.39
2018-05-10T12:27:34.823Z,89.48
2018-05-10T12:28:43.664Z,89.15
2018-05-10T12:29:52.502Z,88.95
2018-05-10T12:31:01.389Z,88.61
2018-05-10T12:32:10.182Z,90.2
2018-05-10T12:33:19.425Z,90.2
2018-05-10T12:34:28.539Z,90.55
2018-05-10T12:35:37.379Z,91.13
2018-05-10T12:36:46.222Z,91.89
2018-05-10T12:37:55.338Z,92.23
2018-05-10T12:39:04.177Z,91.94
2018-05-10T12:40:13.021Z,92.43
2018-05-10T12:41:22.133Z,92.23
2018-05-10T12:42:30.972Z,92.81
2018-05-10T12:43:40.088Z,93.24
2018-05-10T12:44:49.304Z,93.24
2018-05-10T12:45:58.141Z,93.96
2018-05-10T12:47:06.981Z,95.03
2018-05-10T12:48:15.822Z,94.26
2018-05-10T12:49:24.662Z,93.49
2018-05-10T12:50:33.855Z,93.68
2018-05-10T12:51:42.692Z,93.96
2018-05-10T12:52:52.079Z,94.4
2018-05-10T12:54:00.916Z,94.31
2018-05-10T12:55:09.758Z,95.26
2018-05-10T12:56:18.773Z,95.26
2018-05-10T12:57:27.535Z,95.55
2018-05-10T12:58:36.376Z,95.36
2018-05-10T12:59:45.214Z,95.26
2018-05-10T13:00:54.093Z,94.49
2018-05-10T13:02:02.994Z,95.5
2018-05-10T13:03:11.829Z,95.98
2018-05-10T13:04:20.669Z,96.47
2018-05-10T13:05:29.509Z,96.18
2018-05-10T13:06:38.622Z,96.18
2018-05-10T13:07:48.152Z,96.08
2018-05-10T13:08:56.990Z,95.79
2018-05-10T13:10:05.829Z,95.6
2018-05-10T13:11:14.957Z,95.6
2018-05-10T13:12:23.800Z,96.27
2018-05-10T13:13:33.229Z,95.03
2018-05-10T13:14:42.346Z,93.97
2018-05-10T13:15:51.183Z,94.45
2018-05-10T13:17:00.577Z,93.77
2018-05-10T13:18:09.698Z,93.97
2018-05-10T13:19:18.543Z,94.59
2018-05-10T13:20:27.690Z,94.79
2018-05-10T13:21:36.526Z,94.21
2018-05-10T13:22:45.363Z,94.21
2018-05-10T13:23:54.209Z,93.92
2018-05-10T13:25:03.038Z,93.68
2018-05-10T13:26:12.176Z,94.07
2018-05-10T13:27:21.093Z,94.31
2018-05-10T13:28:30.680Z,94.79
2018-05-10T13:29:39.515Z,95.36
2018-05-10T13:30:48.454Z,94.49
2018-05-10T13:31:57.295Z,94.69
2018-05-10T13:33:06.136Z,95.75
2018-05-10T13:34:14.975Z,96.51
2018-05-10T13:35:24.082Z,97.28
2018-05-10T13:36:32.970Z,97.61
2018-05-10T13:37:42.091Z,97.23
2018-05-10T13:38:50.980Z,97.81
2018-05-10T13:40:00.090Z,98.33
2018-05-10T13:41:09.204Z,98.33
2018-05-10T13:42:18.042Z,99.1
2018-05-10T13:43:26.878Z,98.81
2018-05-10T13:44:35.714Z,99.1
2018-05-10T13:45:44.557Z,98.43
2018-05-10T13:46:53.389Z,97.18
2018-05-10T13:48:02.326Z,97.38
2018-05-10T13:49:11.163Z,97.18
2018-05-10T13:50:20.407Z,96.89
2018-05-10T13:51:29.799Z,97.47
2018-05-10T13:52:38.915Z,97.28
2018-05-10T13:53:47.803Z,96.13
2018-05-10T13:54:56.640Z,96.61
2018-05-10T13:56:05.474Z,96.61
2018-05-10T13:57:14.317Z,95.6
2018-05-10T13:58:23.157Z,95.21
2018-05-10T13:59:32.143Z,95.26
2018-05-10T14:00:40.979Z,95.31
2018-05-10T14:01:49.817Z,94.64
2018-05-10T14:02:58.652Z,94.64
2018-05-10T14:04:07.488Z,94.26
2018-05-10T14:05:16.753Z,94.07
2018-05-10T14:06:25.591Z,94.35
2018-05-10T14:07:34.428Z,92.72
2018-05-10T14:08:43.267Z,93.3
2018-05-10T14:09:52.103Z,93.11
2018-05-10T14:11:00.996Z,93.59
2018-05-10T14:12:10.112Z,93.21
2018-05-10T14:13:18.958Z,93.59
2018-05-10T14:14:27.795Z,92.34
2018-05-10T14:15:36.629Z,92.72
2018-05-10T14:16:45.892Z,92.63
2018-05-10T14:17:54.729Z,92.82
2018-05-10T14:19:03.569Z,92.15
2018-05-10T14:20:12.412Z,91.57
2018-05-10T14:21:21.252Z,92.15
2018-05-10T14:22:30.242Z,92.82
2018-05-10T14:23:39.081Z,92.58
2018-05-10T14:24:48.200Z,92.54
2018-05-10T14:25:57.038Z,93.21
2018-05-10T14:27:05.874Z,92.82
2018-05-10T14:28:14.867Z,93.59
2018-05-10T14:29:23.988Z,93.01
2018-05-10T14:30:33.376Z,93.54
2018-05-10T14:31:42.214Z,92.91
2018-05-10T14:32:51.085Z,92.82
2018-05-10T14:34:00.193Z,92.77
2018-05-10T14:35:09.030Z,93.54
2018-05-10T14:36:17.869Z,94.12
2018-05-10T14:37:26.715Z,94.59
2018-05-10T14:38:35.542Z,93.35
2018-05-10T14:39:44.813Z,93.35
2018-05-10T14:40:53.934Z,93.16
2018-05-10T14:42:03.055Z,93.44
2018-05-10T14:43:11.892Z,92.87
2018-05-10T14:44:21.004Z,90.95
2018-05-10T14:45:29.890Z,90.09
2018-05-10T14:46:38.751Z,88.94
2018-05-10T14:47:47.913Z,88.56
2018-05-10T14:48:56.757Z,88.94
2018-05-10T14:50:05.595Z,87.16
2018-05-10T14:51:15.068Z,86.54
2018-05-10T14:52:23.914Z,85.97